createdAt,value
2023-04-20T00:00:15.994Z,0.42
2023-04-20T00:01:16.003Z,0.38
2023-04-20T00:02:16.086Z,0.38
2023-04-20T00:03:16.140Z,0.43
2023-04-20T00:04:16.036Z,0.49
2023-04-20T00:05:16.026Z,0.30
2023-04-20T00:06:16.017Z,0.37
2023-04-20T00:07:16.029Z,0.40
2023-04-20T00:08:16.021Z,0.62
2023-04-20T00:09:16.306Z,0.50
2023-04-20T00:10:16.049Z,0.18
2023-04-20T00:11:16.125Z,0.35
2023-04-20T00:12:16.064Z,0.46
2023-04-20T00:13:16.131Z,0.57
2023-04-20T00:14:16.112Z,0.39
2023-04-20T00:15:16.101Z,0.30
2023-04-20T00:16:16.179Z,0.34
2023-04-20T00:17:16.114Z,0.37
2023-04-20T00:18:16.159Z,0.41
2023-04-20T00:19:16.423Z,0.54
2023-04-20T00:20:16.177Z,0.52
2023-04-20T00:21:16.182Z,0.51
2023-04-20T00:22:16.157Z,0.11
2023-04-20T00:23:16.170Z,0.36
2023-04-20T00:24:16.180Z,0.54
2023-04-20T00:25:16.179Z,0.32
2023-04-20T00:26:16.188Z,0.30
2023-04-20T00:27:16.191Z,0.39
2023-04-20T00:28:16.236Z,0.45
2023-04-20T00:29:16.404Z,0.44
2023-04-20T00:30:16.241Z,0.33
2023-04-20T00:31:16.309Z,0.34
2023-04-20T00:32:16.260Z,0.55
2023-04-20T00:33:16.243Z,0.51
2023-04-20T00:34:16.317Z,0.41
2023-04-20T00:35:16.240Z,0.37
2023-04-20T00:36:16.243Z,0.45
2023-04-20T00:37:16.307Z,0.44
2023-04-20T00:38:16.260Z,0.24
2023-04-20T00:39:16.540Z,0.38
2023-04-20T00:40:16.327Z,0.41
2023-04-20T00:41:16.290Z,0.23
2023-04-20T00:42:16.326Z,0.44
2023-04-20T00:43:16.328Z,0.44
2023-04-20T00:44:16.307Z,0.48
2023-04-20T00:45:16.315Z,0.27
2023-04-20T00:46:16.383Z,0.34
2023-04-20T00:47:16.296Z,0.32
2023-04-20T00:48:16.344Z,0.45
2023-04-20T00:49:16.567Z,0.37
2023-04-20T00:50:16.390Z,0.70
2023-04-20T00:51:16.369Z,0.57
2023-04-20T00:52:16.341Z,0.52
2023-04-20T00:53:16.409Z,0.37
2023-04-20T00:54:16.387Z,0.37
2023-04-20T00:55:16.383Z,0.42
2023-04-20T00:56:16.416Z,0.97
2023-04-20T00:57:16.372Z,0.76
2023-04-20T00:58:16.394Z,0.42
2023-04-20T00:59:16.489Z,0.39
2023-04-20T01:00:16.395Z,0.40
2023-04-20T01:01:16.433Z,0.37
2023-04-20T01:02:16.417Z,0.42
2023-04-20T01:03:16.503Z,0.31
2023-04-20T01:04:16.599Z,0.47
2023-04-20T01:05:16.433Z,0.42
2023-04-20T01:06:16.453Z,0.21
2023-04-20T01:07:16.477Z,0.41
2023-04-20T01:08:16.458Z,0.28
2023-04-20T01:09:16.586Z,0.38
2023-04-20T01:10:16.458Z,0.43
2023-04-20T01:11:16.568Z,0.39
2023-04-20T01:12:16.510Z,0.26
2023-04-20T01:13:16.564Z,0.44
2023-04-20T01:14:16.531Z,0.42
2023-04-20T01:15:16.527Z,0.48
2023-04-20T01:16:16.614Z,0.32
2023-04-20T01:17:16.651Z,0.69
2023-04-20T01:18:16.547Z,0.36
2023-04-20T01:19:16.888Z,0.45
2023-04-20T01:20:16.621Z,0.22
2023-04-20T01:21:16.694Z,0.69
2023-04-20T01:22:16.665Z,0.40
2023-04-20T01:23:16.635Z,0.59
2023-04-20T01:24:16.660Z,0.36
2023-04-20T01:25:16.641Z,0.51
2023-04-20T01:26:16.675Z,0.31
2023-04-20T01:27:16.685Z,0.47
2023-04-20T01:28:16.669Z,0.27
2023-04-20T01:29:16.889Z,0.47
2023-04-20T01:30:16.664Z,0.40
2023-04-20T01:31:16.768Z,0.52
2023-04-20T01:32:16.691Z,0.52
2023-04-20T01:33:16.714Z,0.41
2023-04-20T01:34:16.683Z,0.44
2023-04-20T01:35:16.748Z,0.47
2023-04-20T01:36:16.715Z,0.38
2023-04-20T01:37:16.722Z,0.52
2023-04-20T01:38:16.738Z,0.33
2023-04-20T01:39:17.056Z,0.53
2023-04-20T01:40:16.749Z,0.47
2023-04-20T01:41:16.788Z,0.30
2023-04-20T01:42:16.751Z,0.45
2023-04-20T01:43:16.803Z,0.61
2023-04-20T01:44:16.775Z,0.57
2023-04-20T01:45:16.780Z,0.35
2023-04-20T01:46:16.858Z,0.61
2023-04-20T01:47:16.837Z,0.47
2023-04-20T01:48:16.941Z,0.69
2023-04-20T01:49:17.043Z,0.41
2023-04-20T01:50:16.864Z,0.37
2023-04-20T01:51:16.854Z,0.35
2023-04-20T01:52:16.862Z,0.60
2023-04-20T01:53:16.907Z,0.63
2023-04-20T01:54:16.870Z,0.46
2023-04-20T01:55:18.815Z,0.38
2023-04-20T01:56:16.861Z,0.44
2023-04-20T01:57:16.873Z,0.56
2023-04-20T01:58:16.898Z,0.54
2023-04-20T01:59:17.051Z,0.40
2023-04-20T02:00:16.857Z,0.33
2023-04-20T02:01:16.892Z,0.53
2023-04-20T02:02:16.934Z,0.46
2023-04-20T02:03:17.044Z,0.58
2023-04-20T02:04:16.852Z,0.58
2023-04-20T02:05:16.862Z,0.73
2023-04-20T02:06:16.818Z,0.31
2023-04-20T02:07:16.802Z,0.47
2023-04-20T02:08:16.802Z,0.52
2023-04-20T02:09:17.128Z,0.73
2023-04-20T02:10:16.780Z,0.40
2023-04-20T02:11:16.802Z,0.50
2023-04-20T02:12:16.830Z,0.19
2023-04-20T02:13:16.765Z,0.61
2023-04-20T02:14:16.779Z,1.01
2023-04-20T02:15:16.764Z,0.29
2023-04-20T02:16:16.762Z,0.53
2023-04-20T02:17:16.808Z,0.34
2023-04-20T02:18:16.746Z,0.46
2023-04-20T02:19:16.952Z,0.56
2023-04-20T02:20:16.751Z,0.53
2023-04-20T02:21:16.725Z,0.41
2023-04-20T02:22:16.701Z,0.46
2023-04-20T02:23:16.720Z,0.33
2023-04-20T02:24:16.723Z,0.86
2023-04-20T02:25:16.648Z,0.52
2023-04-20T02:26:16.723Z,0.50
2023-04-20T02:27:16.732Z,0.53
2023-04-20T02:28:16.639Z,0.34
2023-04-20T02:29:16.831Z,0.45
2023-04-20T02:30:16.666Z,0.46
2023-04-20T02:31:16.767Z,0.45
2023-04-20T02:32:16.636Z,0.44
2023-04-20T02:33:16.613Z,0.49
2023-04-20T02:34:16.607Z,0.63
2023-04-20T02:35:16.591Z,0.44
2023-04-20T02:36:16.626Z,0.46
2023-04-20T02:37:16.566Z,0.54
2023-04-20T02:38:16.562Z,0.74
2023-04-20T02:39:16.808Z,0.24
2023-04-20T02:40:16.554Z,0.50
2023-04-20T02:41:16.555Z,0.64
2023-04-20T02:42:16.533Z,0.42
2023-04-20T02:43:16.550Z,0.54
2023-04-20T02:44:16.578Z,0.52
2023-04-20T02:45:16.517Z,0.54
2023-04-20T02:46:16.589Z,0.42
2023-04-20T02:47:16.552Z,0.54
2023-04-20T02:48:16.499Z,0.43
2023-04-20T02:49:16.839Z,0.54
2023-04-20T02:50:16.476Z,0.56
2023-04-20T02:51:16.484Z,0.51
2023-04-20T02:52:16.467Z,0.50
2023-04-20T02:53:16.555Z,0.53
2023-04-20T02:54:16.483Z,0.38
2023-04-20T02:55:16.463Z,0.58
2023-04-20T02:56:16.439Z,0.43
2023-04-20T02:57:16.472Z,0.69
2023-04-20T02:58:16.458Z,0.59
2023-04-20T02:59:16.670Z,0.51
2023-04-20T03:00:16.451Z,0.53
2023-04-20T03:01:16.455Z,0.79
2023-04-20T03:02:16.584Z,0.68
2023-04-20T03:03:16.553Z,0.50
2023-04-20T03:04:16.482Z,0.40
2023-04-20T03:05:16.399Z,0.58
2023-04-20T03:06:16.398Z,0.74
2023-04-20T03:07:16.677Z,0.48
2023-04-20T03:08:16.377Z,0.65
2023-04-20T03:09:16.615Z,0.44
2023-04-20T03:10:16.362Z,0.36
2023-04-20T03:11:16.355Z,0.54
2023-04-20T03:12:16.349Z,0.63
2023-04-20T03:13:16.321Z,0.57
2023-04-20T03:14:16.320Z,0.48
2023-04-20T03:15:16.328Z,0.54
2023-04-20T03:16:16.331Z,0.57
2023-04-20T03:17:16.309Z,0.61
2023-04-20T03:18:16.286Z,0.49
2023-04-20T03:19:16.438Z,0.43
2023-04-20T03:20:16.326Z,0.57
2023-04-20T03:21:16.291Z,0.74
2023-04-20T03:22:16.272Z,1.07
2023-04-20T03:23:16.260Z,0.62
2023-04-20T03:24:16.272Z,0.66
2023-04-20T03:25:16.255Z,0.69
2023-04-20T03:26:16.238Z,0.45
2023-04-20T03:27:16.269Z,0.49
2023-04-20T03:28:16.204Z,0.54
2023-04-20T03:29:16.449Z,0.32
2023-04-20T03:30:16.192Z,0.51
2023-04-20T03:31:16.195Z,0.42
2023-04-20T03:32:16.201Z,0.47
2023-04-20T03:33:16.211Z,0.61
2023-04-20T03:34:16.172Z,0.43
2023-04-20T03:35:16.151Z,0.70
2023-04-20T03:36:16.180Z,0.39
2023-04-20T03:37:16.166Z,0.47
2023-04-20T03:38:16.134Z,0.36
2023-04-20T03:39:16.403Z,0.60
2023-04-20T03:40:16.141Z,0.61
2023-04-20T03:41:16.132Z,0.58
2023-04-20T03:42:16.117Z,0.47
2023-04-20T03:43:16.115Z,0.48
2023-04-20T03:44:16.097Z,0.55
2023-04-20T03:45:16.086Z,0.39
2023-04-20T03:46:16.151Z,0.41
2023-04-20T03:47:16.068Z,0.39
2023-04-20T03:48:16.111Z,0.58
2023-04-20T03:49:16.389Z,0.50
2023-04-20T03:50:16.076Z,0.36
2023-04-20T03:51:16.101Z,0.53
2023-04-20T03:52:16.080Z,0.47
2023-04-20T03:53:16.080Z,0.55
2023-04-20T03:54:16.086Z,0.66
2023-04-20T03:55:16.076Z,0.52
2023-04-20T03:56:16.034Z,0.58
2023-04-20T03:57:16.069Z,0.61
2023-04-20T03:58:16.012Z,0.66
2023-04-20T03:59:16.107Z,0.57
2023-04-20T04:00:16.031Z,0.36
2023-04-20T04:01:16.014Z,0.53
2023-04-20T04:02:16.100Z,0.56
2023-04-20T04:03:16.088Z,0.65
2023-04-20T04:04:16.197Z,0.59
2023-04-20T04:05:15.985Z,0.63
2023-04-20T04:06:15.963Z,0.42
2023-04-20T04:07:15.991Z,0.52
2023-04-20T04:08:15.930Z,0.79
2023-04-20T04:09:16.095Z,0.43
2023-04-20T04:10:15.953Z,0.59
2023-04-20T04:11:15.932Z,0.43
2023-04-20T04:12:15.903Z,0.39
2023-04-20T04:13:15.914Z,0.59
2023-04-20T04:14:15.921Z,0.58
2023-04-20T04:15:15.881Z,0.68
2023-04-20T04:16:15.884Z,0.51
2023-04-20T04:17:15.972Z,0.54
2023-04-20T04:18:15.885Z,0.69
2023-04-20T04:19:16.059Z,0.64
2023-04-20T04:20:15.973Z,0.39
2023-04-20T04:21:15.935Z,0.83
2023-04-20T04:22:15.907Z,0.59
2023-04-20T04:23:15.906Z,0.65
2023-04-20T04:24:15.959Z,0.70
2023-04-20T04:25:15.961Z,0.39
2023-04-20T04:26:15.967Z,0.77
2023-04-20T04:27:15.974Z,0.53
2023-04-20T04:28:15.959Z,0.44
2023-04-20T04:29:16.066Z,0.34
2023-04-20T04:30:15.962Z,0.62
2023-04-20T04:31:15.991Z,0.42
2023-04-20T04:32:16.020Z,0.70
2023-04-20T04:33:15.997Z,0.69
2023-04-20T04:34:15.990Z,0.51
2023-04-20T04:35:16.142Z,0.55
2023-04-20T04:36:16.044Z,0.66
2023-04-20T04:37:16.013Z,1.07
2023-04-20T04:38:16.025Z,0.77
2023-04-20T04:39:16.283Z,0.74
2023-04-20T04:40:16.041Z,0.64
2023-04-20T04:41:16.071Z,0.85
2023-04-20T04:42:16.067Z,0.60
2023-04-20T04:43:16.052Z,0.90
2023-04-20T04:44:16.031Z,0.77
2023-04-20T04:45:16.042Z,0.81
2023-04-20T04:46:16.100Z,0.75
2023-04-20T04:47:16.057Z,1.00
2023-04-20T04:48:16.085Z,0.70
2023-04-20T04:49:16.454Z,0.62
2023-04-20T04:50:16.079Z,1.19
2023-04-20T04:51:16.092Z,0.97
2023-04-20T04:52:16.081Z,0.77
2023-04-20T04:53:16.108Z,2.29
2023-04-20T04:54:16.107Z,0.93
2023-04-20T04:55:16.539Z,0.83
2023-04-20T04:56:16.122Z,0.74
2023-04-20T04:57:16.133Z,0.67
2023-04-20T04:58:16.143Z,0.97
2023-04-20T04:59:16.304Z,0.88
2023-04-20T05:00:16.155Z,0.84
2023-04-20T05:01:16.165Z,0.73
2023-04-20T05:02:16.352Z,0.87
2023-04-20T05:03:16.316Z,1.14
2023-04-20T05:04:16.284Z,0.46
2023-04-20T05:05:16.257Z,0.56
2023-04-20T05:06:16.297Z,0.84
2023-04-20T05:07:16.360Z,0.64
2023-04-20T05:08:16.349Z,0.70
2023-04-20T05:09:16.633Z,0.72
2023-04-20T05:10:16.451Z,0.76
2023-04-20T05:11:16.535Z,0.57
2023-04-20T05:12:16.541Z,0.62
2023-04-20T05:13:16.586Z,0.61
2023-04-20T05:14:16.668Z,0.77
2023-04-20T05:15:16.706Z,0.55
2023-04-20T05:16:16.790Z,0.62
2023-04-20T05:17:16.780Z,0.79
2023-04-20T05:18:16.804Z,0.73
2023-04-20T05:19:17.099Z,0.53
2023-04-20T05:20:16.942Z,0.55
2023-04-20T05:21:16.959Z,0.72
2023-04-20T05:22:17.062Z,0.65
2023-04-20T05:23:17.074Z,0.70
2023-04-20T05:24:17.156Z,0.41
2023-04-20T05:25:17.200Z,0.57
2023-04-20T05:26:17.218Z,0.43
2023-04-20T05:27:17.341Z,0.47
2023-04-20T05:28:17.353Z,0.61
2023-04-20T05:29:17.805Z,0.78
2023-04-20T05:30:21.356Z,0.55
2023-04-20T05:31:17.505Z,1.02
2023-04-20T05:32:17.433Z,0.63
2023-04-20T05:33:17.438Z,0.65
2023-04-20T05:34:17.414Z,0.79
2023-04-20T05:35:17.384Z,0.45
2023-04-20T05:36:17.410Z,0.48
2023-04-20T05:37:17.361Z,0.54
2023-04-20T05:38:17.502Z,0.76
2023-04-20T05:39:17.684Z,0.56
2023-04-20T05:40:17.389Z,0.65
2023-04-20T05:41:17.538Z,0.57
2023-04-20T05:42:17.582Z,0.51
2023-04-20T05:43:17.495Z,0.69
2023-04-20T05:44:17.343Z,0.86
2023-04-20T05:45:17.396Z,0.71
2023-04-20T05:46:17.457Z,1.21
2023-04-20T05:47:17.480Z,0.99
2023-04-20T05:48:17.548Z,0.85
2023-04-20T05:49:17.786Z,1.95
2023-04-20T05:50:17.642Z,1.04
2023-04-20T05:51:17.700Z,1.01
2023-04-20T05:52:17.750Z,1.01
2023-04-20T05:53:17.763Z,1.02
2023-04-20T05:54:17.866Z,1.25
2023-04-20T05:55:19.404Z,1.65
2023-04-20T05:56:17.947Z,1.56
2023-04-20T05:57:17.860Z,1.53
2023-04-20T05:58:17.905Z,2.37
2023-04-20T05:59:17.968Z,1.39
2023-04-20T06:00:17.874Z,1.49
2023-04-20T06:01:17.852Z,1.30
2023-04-20T06:02:17.858Z,1.18
2023-04-20T06:03:18.069Z,1.18
2023-04-20T06:04:18.124Z,1.61
2023-04-20T06:05:17.911Z,1.56
2023-04-20T06:06:17.803Z,1.20
2023-04-20T06:07:17.814Z,1.83
2023-04-20T06:08:17.794Z,1.09
2023-04-20T06:09:18.043Z,1.01
2023-04-20T06:10:17.777Z,1.68
2023-04-20T06:11:17.776Z,1.21
2023-04-20T06:12:17.805Z,1.40
2023-04-20T06:13:17.763Z,1.36
2023-04-20T06:14:17.785Z,1.74
2023-04-20T06:15:17.773Z,1.32
2023-04-20T06:16:17.776Z,1.02
2023-04-20T06:17:17.739Z,1.20
2023-04-20T06:18:17.741Z,0.94
2023-04-20T06:19:18.056Z,1.19
2023-04-20T06:20:17.737Z,1.44
2023-04-20T06:21:17.719Z,1.48
2023-04-20T06:22:17.729Z,1.26
2023-04-20T06:23:17.703Z,0.91
2023-04-20T06:24:17.738Z,1.14
2023-04-20T06:25:17.713Z,1.98
2023-04-20T06:26:17.686Z,1.37
2023-04-20T06:27:17.672Z,1.27
2023-04-20T06:28:17.694Z,1.62
2023-04-20T06:29:17.806Z,1.11
2023-04-20T06:30:17.669Z,1.22
2023-04-20T06:31:17.725Z,1.14
2023-04-20T06:32:17.640Z,1.60
2023-04-20T06:33:17.666Z,1.77
2023-04-20T06:34:17.631Z,1.11
2023-04-20T06:35:17.633Z,1.25
2023-04-20T06:36:17.645Z,1.23
2023-04-20T06:37:17.602Z,1.43
2023-04-20T06:38:17.625Z,1.35
2023-04-20T06:39:17.746Z,1.09
2023-04-20T06:40:17.581Z,1.03
2023-04-20T06:41:17.613Z,1.81
2023-04-20T06:42:17.599Z,1.31
2023-04-20T06:43:17.586Z,1.47
2023-04-20T06:44:17.606Z,1.27
2023-04-20T06:45:17.537Z,1.55
2023-04-20T06:46:17.604Z,2.14
2023-04-20T06:47:17.570Z,2.22
2023-04-20T06:48:31.410Z,2.07
2023-04-20T06:49:18.750Z,1.87
2023-04-20T06:50:17.531Z,2.03
2023-04-20T06:51:17.552Z,2.71
2023-04-20T06:52:17.536Z,2.22
2023-04-20T06:53:17.639Z,2.04
2023-04-20T06:54:19.518Z,2.25
2023-04-20T06:55:17.511Z,1.72
2023-04-20T06:56:17.484Z,2.91
2023-04-20T06:57:17.487Z,2.36
2023-04-20T06:58:17.504Z,3.17
2023-04-20T06:59:17.756Z,2.47
2023-04-20T07:00:17.510Z,3.82
2023-04-20T07:01:17.566Z,3.24
2023-04-20T07:02:17.570Z,2.03
2023-04-20T07:03:17.655Z,1.97
2023-04-20T07:04:17.529Z,2.44
2023-04-20T07:05:17.439Z,3.34
2023-04-20T07:06:17.463Z,2.12
2023-04-20T07:07:17.460Z,3.14
2023-04-20T07:08:17.487Z,1.76
2023-04-20T07:09:17.692Z,1.89
2023-04-20T07:10:17.570Z,1.40
2023-04-20T07:11:17.586Z,2.50
2023-04-20T07:12:17.592Z,1.85
2023-04-20T07:13:17.606Z,1.90
2023-04-20T07:14:17.620Z,1.56
2023-04-20T07:15:17.620Z,1.88
2023-04-20T07:16:17.694Z,2.11
2023-04-20T07:17:17.727Z,2.08
2023-04-20T07:18:17.855Z,1.49
2023-04-20T07:19:18.122Z,1.57
2023-04-20T07:20:17.938Z,1.98
2023-04-20T07:21:17.924Z,1.64
2023-04-20T07:22:17.904Z,1.71
2023-04-20T07:23:17.932Z,1.45
2023-04-20T07:24:17.921Z,2.39
2023-04-20T07:25:17.965Z,2.25
2023-04-20T07:26:18.042Z,1.54
2023-04-20T07:27:18.115Z,2.00
2023-04-20T07:28:18.081Z,1.88
2023-04-20T07:29:18.280Z,1.38
2023-04-20T07:30:18.092Z,1.65
2023-04-20T07:31:18.191Z,1.63
2023-04-20T07:32:18.320Z,1.18
2023-04-20T07:33:18.261Z,1.93
2023-04-20T07:34:18.409Z,2.04
2023-04-20T07:35:18.228Z,1.57
2023-04-20T07:36:18.287Z,1.47
2023-04-20T07:37:18.340Z,1.57
2023-04-20T07:38:18.317Z,1.12
2023-04-20T07:39:18.460Z,1.08
2023-04-20T07:40:18.369Z,1.44
2023-04-20T07:41:18.693Z,1.05
2023-04-20T07:42:18.443Z,1.57
2023-04-20T07:43:18.490Z,1.57
2023-04-20T07:44:18.571Z,1.47
2023-04-20T07:45:18.549Z,1.45
2023-04-20T07:46:18.670Z,1.69
2023-04-20T07:47:18.570Z,1.71
2023-04-20T07:48:18.575Z,1.96
2023-04-20T07:49:18.738Z,1.80
2023-04-20T07:50:18.586Z,1.38
2023-04-20T07:51:18.595Z,2.07
2023-04-20T07:52:18.768Z,2.08
2023-04-20T07:53:18.761Z,1.75
2023-04-20T07:54:18.819Z,2.21
2023-04-20T07:55:18.836Z,2.69
2023-04-20T07:56:18.839Z,2.27
2023-04-20T07:57:18.788Z,2.04
2023-04-20T07:58:18.828Z,2.24
2023-04-20T07:59:19.062Z,1.58
2023-04-20T08:00:18.814Z,1.81
2023-04-20T08:01:18.868Z,2.30
2023-04-20T08:02:19.006Z,1.86
2023-04-20T08:03:19.101Z,1.59
2023-04-20T08:04:19.156Z,1.77
2023-04-20T08:05:19.084Z,1.83
2023-04-20T08:06:19.073Z,1.43
2023-04-20T08:07:19.115Z,1.83
2023-04-20T08:08:19.204Z,1.68
2023-04-20T08:09:19.434Z,1.31
2023-04-20T08:10:19.305Z,1.39
2023-04-20T08:11:19.352Z,1.32
2023-04-20T08:12:19.419Z,1.29
2023-04-20T08:13:19.468Z,1.41
2023-04-20T08:14:19.844Z,1.17
2023-04-20T08:15:19.582Z,0.85
2023-04-20T08:16:19.683Z,1.52
2023-04-20T08:17:19.649Z,1.39
2023-04-20T08:18:21.178Z,1.49
2023-04-20T08:19:19.831Z,1.04
2023-04-20T08:20:19.834Z,1.19
2023-04-20T08:21:19.883Z,1.24
2023-04-20T08:22:20.003Z,1.23
2023-04-20T08:23:20.020Z,1.23
2023-04-20T08:24:20.275Z,1.51
2023-04-20T08:25:20.139Z,1.04
2023-04-20T08:26:20.187Z,1.23
2023-04-20T08:27:20.237Z,1.40
2023-04-20T08:28:32.920Z,0.84
2023-04-20T08:29:21.329Z,0.84
2023-04-20T08:30:20.310Z,1.00
2023-04-20T08:31:20.325Z,1.18
2023-04-20T08:32:20.274Z,1.48
2023-04-20T08:33:20.270Z,1.26
2023-04-20T08:34:20.278Z,1.93
2023-04-20T08:35:20.270Z,1.00
2023-04-20T08:36:20.237Z,0.93
2023-04-20T08:37:20.260Z,1.39
2023-04-20T08:38:23.738Z,0.97
2023-04-20T08:39:21.243Z,0.96
2023-04-20T08:40:20.431Z,2.60
2023-04-20T08:41:20.237Z,2.03
2023-04-20T08:42:20.203Z,1.97
2023-04-20T08:43:21.930Z,1.70
2023-04-20T08:44:20.198Z,2.12
2023-04-20T08:45:20.202Z,1.80
2023-04-20T08:46:20.216Z,2.12
2023-04-20T08:47:20.179Z,2.35
2023-04-20T08:48:20.392Z,1.85
2023-04-20T08:49:20.158Z,2.44
2023-04-20T08:50:20.155Z,1.80
2023-04-20T08:51:20.158Z,1.55
2023-04-20T08:52:20.153Z,2.06
2023-04-20T08:53:20.173Z,3.48
2023-04-20T08:54:20.275Z,3.15
2023-04-20T08:55:20.099Z,3.28
2023-04-20T08:56:20.166Z,3.15
2023-04-20T08:57:20.140Z,3.40
2023-04-20T08:58:20.141Z,3.65
2023-04-20T08:59:20.149Z,3.27
2023-04-20T09:00:20.155Z,3.26
2023-04-20T09:01:28.691Z,3.21
2023-04-20T09:02:21.424Z,2.76
2023-04-20T09:03:20.381Z,3.05
2023-04-20T09:04:20.548Z,3.05
2023-04-20T09:05:20.200Z,3.32
2023-04-20T09:06:22.201Z,2.86
2023-04-20T09:07:20.187Z,2.48
2023-04-20T09:08:20.155Z,2.36
2023-04-20T09:09:20.580Z,2.15
2023-04-20T09:10:20.128Z,1.66
2023-04-20T09:11:20.102Z,1.94
2023-04-20T09:12:22.142Z,2.54
2023-04-20T09:13:20.248Z,2.86
2023-04-20T09:14:20.489Z,2.00
2023-04-20T09:15:20.373Z,2.44
2023-04-20T09:16:20.418Z,2.39
2023-04-20T09:17:20.490Z,2.16
2023-04-20T09:18:20.505Z,2.43
2023-04-20T09:19:20.546Z,2.52
2023-04-20T09:20:20.555Z,1.64
2023-04-20T09:21:20.562Z,1.84
2023-04-20T09:22:20.595Z,1.78
2023-04-20T09:23:20.628Z,0.99
2023-04-20T09:24:20.631Z,1.81
2023-04-20T09:25:20.732Z,1.52
2023-04-20T09:26:20.752Z,1.10
2023-04-20T09:27:20.769Z,1.26
2023-04-20T09:28:20.778Z,1.48
2023-04-20T09:29:20.808Z,1.68
2023-04-20T09:30:20.797Z,1.85
2023-04-20T09:31:20.811Z,1.06
2023-04-20T09:32:20.987Z,1.58
2023-04-20T09:33:20.923Z,1.08
2023-04-20T09:34:21.023Z,1.29
2023-04-20T09:35:21.078Z,1.28
2023-04-20T09:36:21.082Z,0.99
2023-04-20T09:37:21.080Z,1.56
2023-04-20T09:38:21.078Z,1.51
2023-04-20T09:39:21.111Z,0.85
2023-04-20T09:40:21.095Z,1.27
2023-04-20T09:41:21.183Z,1.12
2023-04-20T09:42:21.283Z,1.25
2023-04-20T09:43:21.409Z,1.08
2023-04-20T09:44:21.371Z,0.93
2023-04-20T09:45:21.351Z,0.95
2023-04-20T09:46:21.417Z,1.12
2023-04-20T09:47:21.409Z,1.24
2023-04-20T09:48:21.431Z,1.42
2023-04-20T09:49:21.459Z,0.91
2023-04-20T09:50:29.062Z,0.75
2023-04-20T09:51:22.427Z,0.81
2023-04-20T09:52:21.387Z,1.62
2023-04-20T09:53:21.362Z,0.77
2023-04-20T09:54:21.377Z,1.02
2023-04-20T09:55:21.370Z,1.02
2023-04-20T09:56:21.397Z,0.98
2023-04-20T09:57:21.321Z,0.73
2023-04-20T09:58:21.606Z,0.96
2023-04-20T09:59:21.324Z,0.71
2023-04-20T10:00:21.406Z,0.95
2023-04-20T10:01:21.342Z,0.96
2023-04-20T10:02:21.512Z,1.01
2023-04-20T10:03:21.522Z,0.65
2023-04-20T10:04:21.684Z,1.04
2023-04-20T10:05:21.291Z,1.00
2023-04-20T10:06:21.306Z,0.80
2023-04-20T10:07:21.358Z,0.72
2023-04-20T10:08:21.413Z,0.98
2023-04-20T10:09:21.403Z,0.93
2023-04-20T10:10:21.484Z,1.01
2023-04-20T10:11:21.552Z,0.80
2023-04-20T10:12:21.571Z,0.75
2023-04-20T10:13:21.668Z,1.32
2023-04-20T10:14:21.701Z,0.61
2023-04-20T10:15:21.804Z,0.63
2023-04-20T10:16:21.974Z,0.80
2023-04-20T10:17:22.019Z,0.74
2023-04-20T10:18:22.083Z,0.57
2023-04-20T10:19:22.006Z,1.14
2023-04-20T10:20:22.035Z,0.88
2023-04-20T10:21:22.126Z,0.59
2023-04-20T10:22:22.145Z,0.98
2023-04-20T10:23:22.181Z,0.44
2023-04-20T10:24:22.294Z,0.69
2023-04-20T10:25:22.259Z,0.55
2023-04-20T10:26:22.257Z,0.52
2023-04-20T10:27:22.271Z,0.54
2023-04-20T10:28:22.282Z,0.83
2023-04-20T10:29:22.305Z,0.55
2023-04-20T10:30:22.290Z,0.76
2023-04-20T10:31:22.426Z,0.52
2023-04-20T10:32:22.318Z,0.53
2023-04-20T10:33:22.369Z,0.56
2023-04-20T10:34:22.324Z,0.92
2023-04-20T10:35:22.327Z,0.64
2023-04-20T10:36:22.386Z,0.51
2023-04-20T10:37:22.394Z,0.49
2023-04-20T10:38:22.401Z,0.62
2023-04-20T10:39:22.711Z,0.98
2023-04-20T10:40:22.419Z,0.84
2023-04-20T10:41:22.414Z,0.78
2023-04-20T10:42:22.429Z,0.86
2023-04-20T10:43:22.449Z,0.88
2023-04-20T10:44:22.437Z,0.99
2023-04-20T10:45:22.397Z,0.80
2023-04-20T10:46:22.491Z,0.96
2023-04-20T10:47:22.476Z,0.97
2023-04-20T10:48:22.656Z,0.96
2023-04-20T10:49:22.441Z,0.71
2023-04-20T10:50:22.454Z,0.75
2023-04-20T10:51:22.450Z,0.65
2023-04-20T10:52:22.456Z,0.63
2023-04-20T10:53:22.489Z,0.52
2023-04-20T10:54:22.510Z,0.66
2023-04-20T10:55:22.458Z,0.85
2023-04-20T10:56:22.526Z,0.56
2023-04-20T10:57:22.496Z,0.46
2023-04-20T10:58:22.543Z,0.39
2023-04-20T10:59:22.514Z,0.33
2023-04-20T11:00:22.529Z,0.81
2023-04-20T11:01:22.559Z,0.43
2023-04-20T11:02:22.801Z,0.40
2023-04-20T11:03:22.743Z,0.59
2023-04-20T11:04:22.610Z,0.79
2023-04-20T11:05:22.860Z,0.78
2023-04-20T11:06:22.599Z,0.60
2023-04-20T11:07:22.610Z,0.61
2023-04-20T11:08:22.618Z,0.55
2023-04-20T11:09:22.669Z,0.32
2023-04-20T11:10:22.629Z,0.33
2023-04-20T11:11:22.638Z,0.34
2023-04-20T11:12:22.645Z,0.23
2023-04-20T11:13:22.708Z,0.44
2023-04-20T11:14:22.674Z,0.51
2023-04-20T11:15:22.693Z,0.45
2023-04-20T11:16:26.166Z,0.52
2023-04-20T11:17:23.834Z,0.40
2023-04-20T11:18:22.746Z,0.68
2023-04-20T11:19:22.690Z,0.59
2023-04-20T11:20:22.810Z,0.56
2023-04-20T11:21:22.625Z,0.47
2023-04-20T11:22:22.661Z,0.37
2023-04-20T11:23:22.696Z,0.45
2023-04-20T11:24:22.616Z,0.51
2023-04-20T11:25:23.657Z,0.30
2023-04-20T11:26:22.640Z,0.42
2023-04-20T11:27:22.597Z,0.58
2023-04-20T11:28:22.601Z,0.38
2023-04-20T11:29:22.600Z,0.40
2023-04-20T11:30:22.614Z,0.49
2023-04-20T11:31:22.738Z,0.45
2023-04-20T11:32:22.711Z,0.34
2023-04-20T11:33:22.715Z,0.52
2023-04-20T11:34:22.534Z,0.38
2023-04-20T11:35:22.614Z,0.47
2023-04-20T11:36:22.537Z,0.39
2023-04-20T11:37:22.571Z,0.55
2023-04-20T11:38:22.566Z,0.53
2023-04-20T11:39:22.566Z,0.38
2023-04-20T11:40:22.532Z,0.53
2023-04-20T11:41:22.530Z,0.35
2023-04-20T11:42:23.152Z,0.33
2023-04-20T11:43:22.559Z,0.53
2023-04-20T11:44:22.552Z,0.47
2023-04-20T11:45:22.518Z,0.42
2023-04-20T11:46:22.611Z,0.40
2023-04-20T11:47:22.564Z,0.66
2023-04-20T11:48:22.561Z,0.50
2023-04-20T11:49:22.586Z,0.46
2023-04-20T11:50:22.597Z,0.52
2023-04-20T11:51:22.603Z,0.73
2023-04-20T11:52:22.844Z,0.35
2023-04-20T11:53:22.654Z,0.42
2023-04-20T11:54:22.679Z,0.40
2023-04-20T11:55:22.719Z,0.30
2023-04-20T11:56:23.069Z,0.45
2023-04-20T11:57:22.766Z,0.52
2023-04-20T11:58:22.817Z,0.46
2023-04-20T11:59:22.827Z,0.39
2023-04-20T12:00:22.880Z,0.50
2023-04-20T12:01:22.898Z,0.36
2023-04-20T12:02:23.040Z,0.42
2023-04-20T12:03:23.075Z,0.56
2023-04-20T12:04:23.344Z,0.34
2023-04-20T12:05:23.032Z,0.28
2023-04-20T12:06:22.975Z,0.44
2023-04-20T12:07:23.034Z,0.52
2023-04-20T12:08:23.084Z,0.28
2023-04-20T12:09:23.062Z,0.30
2023-04-20T12:10:23.102Z,0.44
2023-04-20T12:11:23.111Z,0.44
2023-04-20T12:12:23.110Z,0.57
2023-04-20T12:13:23.231Z,0.32
2023-04-20T12:14:23.176Z,0.64
2023-04-20T12:15:23.228Z,0.85
2023-04-20T12:16:23.273Z,0.52
2023-04-20T12:17:23.271Z,1.50
2023-04-20T12:18:23.287Z,0.49
2023-04-20T12:19:23.280Z,0.39
2023-04-20T12:20:23.380Z,0.67
2023-04-20T12:21:23.346Z,0.70
2023-04-20T12:22:23.368Z,0.93
2023-04-20T12:23:23.397Z,0.62
2023-04-20T12:24:23.436Z,0.48
2023-04-20T12:25:23.458Z,0.69
2023-04-20T12:26:31.925Z,0.35
2023-04-20T12:27:24.462Z,0.46
2023-04-20T12:28:23.449Z,0.39
2023-04-20T12:29:23.468Z,0.43
2023-04-20T12:30:23.430Z,0.79
2023-04-20T12:31:25.186Z,0.57
2023-04-20T12:32:23.474Z,0.35
2023-04-20T12:33:23.423Z,0.51
2023-04-20T12:34:23.449Z,0.51
2023-04-20T12:35:23.407Z,0.51
2023-04-20T12:36:23.392Z,0.53
2023-04-20T12:37:23.395Z,0.49
2023-04-20T12:38:23.390Z,0.55
2023-04-20T12:39:23.377Z,0.49
2023-04-20T12:40:23.369Z,0.54
2023-04-20T12:41:23.392Z,0.37
2023-04-20T12:42:23.344Z,0.45
2023-04-20T12:43:23.351Z,0.59
2023-04-20T12:44:23.334Z,0.41
2023-04-20T12:45:23.346Z,0.60
2023-04-20T12:46:23.380Z,0.67
2023-04-20T12:47:23.414Z,0.41
2023-04-20T12:48:23.401Z,0.34
2023-04-20T12:49:23.291Z,0.76
2023-04-20T12:50:23.336Z,0.53
2023-04-20T12:51:23.294Z,0.74
2023-04-20T12:52:23.275Z,0.53
2023-04-20T12:53:23.308Z,0.70
2023-04-20T12:54:23.258Z,0.44
2023-04-20T12:55:23.256Z,0.41
2023-04-20T12:56:23.233Z,0.61
2023-04-20T12:57:23.255Z,0.52
2023-04-20T12:58:23.242Z,0.62
2023-04-20T12:59:23.222Z,0.31
2023-04-20T13:01:42.545Z,0.49
2023-04-20T13:02:42.510Z,0.55
2023-04-20T13:03:42.826Z,0.46
2023-04-20T13:04:42.421Z,0.64
2023-04-20T13:05:42.428Z,0.58
2023-04-20T13:06:42.439Z,0.34
2023-04-20T13:07:42.444Z,0.39
2023-04-20T13:08:42.404Z,0.54
2023-04-20T13:09:42.432Z,0.48
2023-04-20T13:10:42.375Z,0.36
2023-04-20T13:11:42.374Z,0.44
2023-04-20T13:12:42.420Z,0.42
2023-04-20T13:13:42.374Z,0.42
2023-04-20T13:14:42.348Z,0.63
2023-04-20T13:15:42.373Z,0.43
2023-04-20T13:16:42.411Z,0.47
2023-04-20T13:17:43.072Z,0.59
2023-04-20T13:18:42.355Z,0.44
2023-04-20T13:19:42.389Z,0.36